createdAt,value
2019-04-29T00:00:01.445Z,91.38
2019-04-29T00:02:35.610Z,91.54
2019-04-29T00:05:07.494Z,91.67
2019-04-29T00:07:38.402Z,91.95
2019-04-29T00:10:11.281Z,91.95
2019-04-29T00:12:42.244Z,92.02
2019-04-29T00:15:17.592Z,92.24
2019-04-29T00:17:53.100Z,92.49
2019-04-29T00:20:28.042Z,92.62
2019-04-29T00:22:58.627Z,92.49
2019-04-29T00:25:29.517Z,92.77
2019-04-29T00:28:00.490Z,93.02
2019-04-29T00:30:31.407Z,92.68
2019-04-29T00:33:02.144Z,92.70
2019-04-29T00:35:33.391Z,92.61
2019-04-29T00:38:12.094Z,92.81
2019-04-29T00:40:47.568Z,92.85
2019-04-29T00:43:20.168Z,92.93
2019-04-29T00:45:50.820Z,93.17
2019-04-29T00:48:21.679Z,93.05
2019-04-29T00:50:52.683Z,93.01
2019-04-29T00:53:23.733Z,93.15
2019-04-29T00:55:54.403Z,93.39
2019-04-29T00:58:25.691Z,93.47
2019-04-29T01:00:56.706Z,93.50
2019-04-29T01:03:27.466Z,93.43
2019-04-29T01:05:58.193Z,93.40
2019-04-29T01:08:28.950Z,93.49
2019-04-29T01:10:59.570Z,93.82
2019-04-29T01:13:30.400Z,93.93
2019-04-29T01:16:01.338Z,93.77
2019-04-29T01:18:31.957Z,93.87
2019-04-29T01:21:04.003Z,94.08
2019-04-29T01:23:34.614Z,94.11
2019-04-29T01:26:22.516Z,94.03
2019-04-29T01:28:55.353Z,94.05
2019-04-29T01:31:27.646Z,94.10
2019-04-29T01:34:00.127Z,94.07
2019-04-29T01:36:34.093Z,93.84
2019-04-29T01:39:06.467Z,93.67
2019-04-29T01:41:45.574Z,93.93
2019-04-29T01:44:18.294Z,94.19
2019-04-29T01:46:50.353Z,93.98
2019-04-29T01:49:21.112Z,94.12
2019-04-29T01:51:52.795Z,94.34
2019-04-29T01:54:23.466Z,94.25
2019-04-29T01:56:54.239Z,94.21
2019-04-29T01:59:24.900Z,94.22
2019-04-29T02:01:55.936Z,94.39
2019-04-29T02:04:26.838Z,94.37
2019-04-29T02:06:57.402Z,94.46
2019-04-29T02:09:35.994Z,94.58
2019-04-29T02:12:06.931Z,94.57
2019-04-29T02:14:38.727Z,94.65
2019-04-29T02:17:10.114Z,94.54
2019-04-29T02:19:41.028Z,94.75
2019-04-29T02:22:16.101Z,94.69
2019-04-29T02:24:55.612Z,94.81
2019-04-29T02:27:26.278Z,94.85
2019-04-29T02:29:57.138Z,97.07
2019-04-29T02:32:27.911Z,97.92
2019-04-29T02:34:58.611Z,97.64
2019-04-29T02:37:30.938Z,96.81
2019-04-29T02:40:03.643Z,96.44
2019-04-29T02:42:38.739Z,96.21
2019-04-29T02:45:11.584Z,95.84
2019-04-29T02:47:42.606Z,95.82
2019-04-29T02:50:14.402Z,96.18
2019-04-29T02:52:45.139Z,96.08
2019-04-29T02:55:18.025Z,96.02
2019-04-29T02:57:50.536Z,95.95
2019-04-29T03:04:06.684Z,96.10
2019-04-29T03:06:37.421Z,96.00
2019-04-29T03:09:08.365Z,95.93
2019-04-29T03:11:39.130Z,95.95
2019-04-29T03:14:09.842Z,96.24
2019-04-29T03:16:40.458Z,96.06
2019-04-29T03:19:28.163Z,96.19
2019-04-29T03:22:00.427Z,96.40
2019-04-29T03:24:30.985Z,96.35
2019-04-29T03:27:01.642Z,96.38
2019-04-29T03:29:32.523Z,96.35
2019-04-29T03:32:03.301Z,96.30
2019-04-29T03:34:34.191Z,97.06
2019-04-29T03:37:04.889Z,97.93
2019-04-29T03:39:35.758Z,97.58
2019-04-29T03:42:07.533Z,97.18
2019-04-29T03:44:38.656Z,97.08
2019-04-29T03:47:09.367Z,97.02
